createdAt,value
2022-11-17T00:03:52.051Z,19.05
2022-11-17T00:08:54.643Z,18.15
2022-11-17T00:14:15.767Z,18.67
2022-11-17T00:19:37.003Z,20.13
2022-11-17T00:24:39.573Z,16.83
2022-11-17T00:29:42.315Z,19.55
2022-11-17T00:34:44.962Z,13.68
2022-11-17T00:39:47.467Z,13.53
2022-11-17T00:44:50.057Z,18.92
2022-11-17T00:49:52.594Z,15.05
2022-11-17T00:54:55.112Z,14.05
2022-11-17T00:59:57.633Z,16.98
2022-11-17T01:05:00.216Z,13.90
2022-11-17T01:10:02.749Z,14.10
2022-11-17T01:15:06.131Z,14.43
2022-11-17T01:20:09.348Z,13.20
2022-11-17T01:25:11.989Z,13.75
2022-11-17T01:30:18.409Z,18.10
2022-11-17T01:35:20.915Z,13.60
2022-11-17T01:40:23.467Z,14.93
2022-11-17T01:45:26.968Z,15.38
2022-11-17T01:50:42.439Z,17.65
2022-11-17T01:55:52.330Z,19.30
2022-11-17T02:00:55.799Z,19.38
2022-11-17T02:06:06.108Z,18.50
2022-11-17T02:11:18.227Z,16.90
2022-11-17T02:16:20.951Z,18.27
2022-11-17T02:21:35.264Z,14.40
2022-11-17T02:26:59.008Z,13.38
2022-11-17T02:32:04.901Z,13.02
2022-11-17T02:37:16.529Z,17.15
2022-11-17T02:42:48.464Z,14.68
2022-11-17T02:47:54.963Z,14.82
2022-11-17T02:52:57.687Z,15.13
2022-11-17T02:58:00.297Z,15.50
2022-11-17T03:03:35.500Z,16.70
2022-11-17T03:09:02.936Z,13.95
2022-11-17T03:14:20.152Z,17.75
2022-11-17T03:19:32.600Z,10.68
2022-11-17T03:24:49.869Z,16.15
2022-11-17T03:29:57.167Z,14.63
2022-11-17T03:35:08.227Z,12.90
2022-11-17T03:40:15.010Z,16.80
2022-11-17T03:45:22.730Z,14.40
2022-11-17T03:50:32.202Z,15.88
2022-11-17T03:56:16.201Z,18.98
2022-11-17T04:01:21.099Z,17.20
2022-11-17T04:06:23.771Z,17.75
2022-11-17T04:11:45.121Z,20.27
2022-11-17T04:16:47.718Z,16.27
2022-11-17T04:21:50.338Z,18.65
2022-11-17T04:27:11.256Z,14.45
2022-11-17T04:32:13.868Z,21.17
2022-11-17T04:37:19.771Z,31.98
2022-11-17T04:42:22.305Z,28.80
2022-11-17T04:47:24.883Z,26.20
2022-11-17T04:52:29.940Z,24.85
2022-11-17T04:57:32.702Z,25.50
2022-11-17T05:02:35.354Z,31.77
2022-11-17T05:07:38.060Z,21.20
2022-11-17T05:13:01.248Z,22.08
2022-11-17T05:18:03.877Z,20.95
2022-11-17T05:23:25.061Z,21.77
2022-11-17T05:28:27.600Z,15.27
2022-11-17T05:33:36.441Z,25.17
2022-11-17T05:38:40.655Z,20.17
2022-11-17T05:43:43.961Z,19.38
2022-11-17T05:48:48.854Z,22.90
2022-11-17T05:53:51.762Z,29.63
2022-11-17T05:59:03.872Z,25.13
2022-11-17T06:04:08.752Z,24.02
2022-11-17T06:09:11.969Z,33.85
2022-11-17T06:14:14.573Z,22.45
2022-11-17T06:24:25.563Z,24.92
2022-11-17T06:29:29.006Z,29.33
2022-11-17T06:34:33.007Z,26.52
2022-11-17T06:39:35.660Z,27.58
2022-11-17T06:44:38.195Z,22.40
2022-11-17T06:49:40.844Z,21.73
2022-11-17T06:54:43.495Z,31.40
2022-11-17T06:59:46.183Z,21.48
2022-11-17T07:04:48.766Z,30.45
2022-11-17T07:09:51.384Z,26.00
2022-11-17T07:14:53.933Z,24.98
2022-11-17T07:19:56.909Z,26.95
2022-11-17T07:24:59.513Z,22.50
2022-11-17T07:30:03.082Z,28.55
2022-11-17T07:35:06.927Z,21.92
2022-11-17T07:40:10.257Z,19.65
2022-11-17T07:45:13.043Z,16.13
2022-11-17T07:50:16.166Z,16.70
2022-11-17T07:55:19.298Z,20.35
2022-11-17T08:00:22.312Z,17.45
2022-11-17T08:05:26.689Z,15.77
2022-11-17T08:10:31.502Z,15.65
2022-11-17T08:15:34.161Z,15.88
2022-11-17T08:20:37.036Z,16.35
2022-11-17T08:25:39.754Z,16.17
2022-11-17T08:30:44.411Z,19.02
2022-11-17T08:35:47.167Z,16.15
2022-11-17T08:40:49.813Z,23.33
2022-11-17T08:45:53.147Z,34.28
2022-11-17T08:50:56.386Z,30.60
2022-11-17T08:55:59.774Z,24.90
2022-11-17T09:01:05.273Z,25.23
2022-11-17T09:06:08.934Z,20.67
2022-11-17T09:11:12.535Z,22.08
2022-11-17T09:16:16.063Z,21.65
2022-11-17T09:21:18.685Z,23.05
2022-11-17T09:26:21.448Z,24.00
2022-11-17T09:31:24.180Z,33.08
2022-11-17T09:36:27.060Z,34.17
2022-11-17T09:41:44.583Z,27.23
2022-11-17T09:46:56.653Z,31.73
2022-11-17T09:52:11.448Z,40.75
2022-11-17T09:57:40.982Z,31.00
2022-11-17T10:02:43.726Z,23.08
2022-11-17T10:07:51.750Z,20.05
2022-11-17T10:12:58.290Z,12.77
2022-11-17T10:18:00.948Z,15.00
2022-11-17T10:23:04.711Z,12.15
2022-11-17T10:28:09.821Z,14.45
2022-11-17T10:33:13.392Z,16.58
2022-11-17T10:38:22.967Z,29.10
2022-11-17T10:43:37.077Z,14.95
2022-11-17T10:48:55.241Z,15.13
2022-11-17T10:54:14.870Z,11.45
2022-11-17T10:59:29.934Z,11.85
2022-11-17T11:04:39.634Z,11.57
2022-11-17T11:09:49.561Z,11.70
2022-11-17T11:14:56.277Z,13.38
2022-11-17T11:19:59.392Z,11.70
2022-11-17T11:25:21.254Z,10.60
2022-11-17T11:30:24.012Z,15.48
2022-11-17T11:35:53.334Z,8.88
2022-11-17T11:41:42.588Z,14.23
2022-11-17T11:47:09.386Z,10.07
2022-11-17T11:52:22.974Z,9.70
2022-11-17T11:57:32.875Z,8.97
2022-11-17T12:02:50.333Z,11.23
2022-11-17T12:07:56.687Z,9.20
2022-11-17T12:12:59.992Z,10.83
2022-11-17T12:18:06.450Z,8.50
2022-11-17T12:23:27.714Z,11.60
2022-11-17T12:28:40.234Z,11.32
2022-11-17T12:33:52.077Z,9.90
2022-11-17T12:44:36.345Z,8.47
2022-11-17T12:49:58.022Z,12.17
2022-11-17T12:55:18.043Z,12.23
2022-11-17T13:00:23.547Z,9.73
2022-11-17T13:05:30.348Z,16.47
2022-11-17T13:10:33.103Z,15.37
2022-11-17T13:15:35.669Z,8.03
2022-11-17T13:20:39.652Z,9.10
2022-11-17T13:25:42.603Z,10.20
2022-11-17T13:30:47.053Z,6.07
2022-11-17T13:35:51.456Z,9.80
2022-11-17T13:40:54.190Z,6.23
2022-11-17T13:45:57.580Z,12.93
2022-11-17T13:51:38.908Z,7.80
2022-11-17T13:56:47.463Z,7.03
2022-11-17T14:02:10.155Z,8.10
2022-11-17T14:07:15.083Z,7.43
2022-11-17T14:12:17.785Z,4.17
2022-11-17T14:17:22.238Z,4.73
2022-11-17T14:22:31.348Z,5.87
2022-11-17T14:27:37.099Z,4.97
2022-11-17T14:32:40.257Z,4.80
2022-11-17T14:37:43.581Z,5.30
2022-11-17T14:42:46.295Z,5.80
2022-11-17T14:47:48.934Z,6.37
2022-11-17T14:52:51.454Z,5.00
2022-11-17T14:57:54.424Z,6.73
2022-11-17T15:02:57.205Z,9.33
2022-11-17T15:07:59.895Z,6.93
2022-11-17T15:13:02.453Z,8.77
2022-11-17T15:18:05.379Z,5.37
2022-11-17T15:23:08.452Z,6.67
2022-11-17T15:28:15.016Z,8.43
2022-11-17T15:33:19.547Z,8.03
2022-11-17T15:38:22.160Z,5.63
2022-11-17T15:43:32.581Z,7.27
2022-11-17T15:48:40.117Z,5.53
2022-11-17T15:53:43.783Z,6.33
2022-11-17T15:58:47.756Z,8.87
2022-11-17T16:03:51.104Z,9.40
2022-11-17T16:08:53.981Z,5.47
2022-11-17T16:13:57.621Z,6.23
2022-11-17T16:19:00.237Z,5.70
2022-11-17T16:24:03.537Z,6.57
2022-11-17T16:29:07.512Z,9.17
2022-11-17T16:34:13.425Z,7.83
2022-11-17T16:39:17.478Z,5.23
2022-11-17T16:44:20.726Z,6.77
2022-11-17T16:49:23.708Z,8.63
2022-11-17T16:54:26.298Z,5.30
2022-11-17T16:59:28.913Z,5.27
2022-11-17T17:04:32.038Z,6.90
2022-11-17T17:09:34.751Z,6.87
2022-11-17T17:14:37.319Z,5.63
2022-11-17T17:19:39.935Z,7.37
2022-11-17T17:24:42.698Z,7.37
2022-11-17T17:29:45.373Z,5.37
2022-11-17T17:34:47.922Z,5.83
2022-11-17T17:39:50.512Z,6.77
2022-11-17T17:44:53.106Z,7.73
2022-11-17T17:49:55.856Z,8.17
2022-11-17T17:54:58.512Z,4.20
2022-11-17T18:00:01.083Z,7.67
2022-11-17T18:05:07.013Z,5.70
2022-11-17T18:10:09.712Z,9.43
2022-11-17T18:15:12.247Z,9.53
2022-11-17T18:20:15.131Z,5.07
2022-11-17T18:25:18.097Z,8.40
2022-11-17T18:30:20.722Z,6.27
2022-11-17T18:35:23.364Z,6.57
2022-11-17T18:40:26.348Z,8.20
2022-11-17T18:45:29.553Z,8.17
2022-11-17T18:50:32.129Z,7.40
2022-11-17T18:55:34.689Z,6.63
2022-11-17T19:00:37.406Z,8.53
2022-11-17T19:05:39.973Z,6.47
2022-11-17T19:10:52.813Z,7.30
2022-11-17T19:15:55.545Z,7.57
2022-11-17T19:21:08.522Z,8.33
2022-11-17T19:26:20.024Z,6.03
2022-11-17T19:31:23.368Z,8.63
2022-11-17T19:36:31.773Z,5.97
2022-11-17T19:41:37.020Z,6.73
2022-11-17T19:46:39.978Z,8.90
2022-11-17T19:51:42.638Z,7.93
2022-11-17T19:56:45.676Z,8.10
2022-11-17T20:01:48.282Z,7.90
2022-11-17T20:06:51.064Z,6.87
2022-11-17T20:11:53.742Z,7.77
2022-11-17T20:16:56.408Z,8.13
2022-11-17T20:21:59.066Z,7.23
2022-11-17T20:27:01.636Z,8.57
2022-11-17T20:32:04.422Z,9.63
2022-11-17T20:37:06.993Z,7.10
2022-11-17T20:42:10.434Z,8.67
2022-11-17T20:47:13.110Z,12.93
2022-11-17T20:52:15.937Z,10.17
2022-11-17T20:57:18.905Z,7.80
2022-11-17T21:02:21.417Z,9.93
2022-11-17T21:07:24.014Z,9.77
2022-11-17T21:12:27.294Z,9.50
2022-11-17T21:17:48.374Z,9.20
2022-11-17T21:22:51.052Z,8.50
2022-11-17T21:27:53.595Z,9.07
2022-11-17T21:32:56.178Z,8.80
2022-11-17T21:37:59.289Z,10.90
2022-11-17T21:43:08.049Z,9.77
2022-11-17T21:48:10.794Z,7.63
2022-11-17T21:53:13.425Z,15.63
2022-11-17T21:58:15.920Z,10.10
2022-11-17T22:03:18.528Z,7.93
2022-11-17T22:08:21.064Z,11.73
2022-11-17T22:13:23.630Z,9.50
2022-11-17T22:18:26.195Z,8.97
2022-11-17T22:23:28.862Z,12.13
2022-11-17T22:28:31.535Z,8.53
2022-11-17T22:33:34.180Z,10.47
2022-11-17T22:38:36.867Z,9.10
2022-11-17T22:43:39.615Z,9.63
2022-11-17T22:48:42.202Z,10.33
2022-11-17T22:53:44.976Z,11.07
2022-11-17T22:58:50.059Z,11.30
2022-11-17T23:03:52.814Z,10.07
2022-11-17T23:08:57.520Z,11.57
2022-11-17T23:14:00.155Z,10.87
2022-11-17T23:19:03.158Z,10.07
2022-11-17T23:24:06.091Z,9.30
2022-11-17T23:29:09.482Z,8.83
2022-11-17T23:34:12.213Z,12.17
2022-11-17T23:39:15.355Z,10.67
2022-11-17T23:44:18.283Z,12.00
2022-11-17T23:49:20.843Z,11.07
2022-11-17T23:54:23.457Z,9.47
2022-11-17T23:59:26.006Z,9.50
